Stevens Point, WI

11:50 PM CDT on May 23, 2017 (GMT -0500)
Stevens Point Municipal

Weather History for KSTE - October, 2013

Change the Weather History Date:

Wednesday, October 30, 2013

  Actual Average Record
Temperature  
Mean Temperature 44 °F -  
Max Temperature 50 °F 51 °F 77 °F (1950)
Min Temperature 38 °F 33 °F 12 °F (1988)
Degree Days  
Heating Degree Days 21    
Moisture  
Dew Point 42 °F    
Average Humidity 95    
Maximum Humidity 100    
Minimum Humidity 90    
Precipitation  
Precipitation 0.00 in - - ()
Sea Level Pressure  
Sea Level Pressure 29.98 in    
Wind  
Wind Speed 5 mph (ESE)    
Max Wind Speed 10 mph    
Max Gust Speed -    
Visibility 3 miles    
Events Fog , Rain    
Averages and records for this station are not official NWS values.
T = Trace of Precipitation, MM = Missing Value Source: NWS Daily Summary

Daily Weather History Graph

Daily Weather History Graph

Search for Another Location

Airport or City:

Trip Planner

Search our weather history database for the weather conditions in past years. The results will help you decide how hot, cold, wet, or windy it might be!

Date:

Astronomy

Oct. 30, 2013 Rise Set
Actual Time 7:33 AM CDT 5:49 PM CDT
Civil Twilight 7:03 AM CDT 6:19 PM CDT
Nautical Twilight 6:28 AM CDT 6:54 PM CDT
Astronomical Twilight 5:54 AM CDT 7:27 PM CDT
Moon 3:12 AM CDT (10/30) 3:43 PM CDT (10/30)
Length of Visible Light 11h 16m
Length of Day
10h 16m
Waning Crescent, 17% of the Moon is Illuminated
Oct 30
Waning Crescent
Nov 3
New
Nov 9
First Quarter
Nov 17
Full
Nov 25
Last Quarter

Hourly Weather History & Observations

Time (CDT) Temp. Windchill Dew Point Humidity Pressure Visibility Wind Dir Wind Speed Gust Speed Precip Events Conditions
12:15 AM 39.9 °F 37.8 °F 37.4 °F 91% 30.13 in 5.0 mi ESE 3.5 mph - N/A   Overcast
12:35 AM 40.1 °F 38.0 °F 37.8 °F 91% 30.13 in 5.0 mi ESE 3.5 mph - N/A   Overcast
12:55 AM 40.1 °F - 37.8 °F 91% 30.13 in 5.0 mi Calm Calm - N/A   Overcast
1:15 AM 40.1 °F 36.1 °F 38.1 °F 93% 30.12 in 5.0 mi ESE 5.8 mph - N/A   Overcast
1:35 AM 40.3 °F 38.2 °F 38.3 °F 93% 30.13 in 5.0 mi ESE 3.5 mph - N/A   Overcast
1:55 AM 40.1 °F 36.9 °F 37.9 °F 92% 30.12 in 5.0 mi East 4.6 mph - N/A   Overcast
2:15 AM 39.7 °F 36.5 °F 37.8 °F 93% 30.12 in 5.0 mi East 4.6 mph - N/A   Overcast
2:35 AM 39.6 °F 36.3 °F 37.8 °F 93% 30.12 in 4.0 mi East 4.6 mph - N/A   Overcast
2:55 AM 39.6 °F 35.4 °F 37.8 °F 93% 30.11 in 5.0 mi East 5.8 mph - N/A   Overcast
3:15 AM 39.4 °F 35.2 °F 37.6 °F 93% 30.10 in 5.0 mi East 5.8 mph - N/A   Overcast
3:35 AM 39.4 °F 36.1 °F 37.4 °F 93% 30.10 in 5.0 mi East 4.6 mph - N/A   Overcast
3:55 AM 39.6 °F - 37.4 °F 92% 30.10 in 5.0 mi Calm Calm - N/A   Overcast
4:15 AM 39.6 °F - 37.4 °F 92% 30.10 in 7.0 mi Calm Calm - N/A   Overcast
4:35 AM 39.6 °F 37.4 °F 37.4 °F 92% 30.10 in 7.0 mi ENE 3.5 mph - N/A   Overcast
4:55 AM 39.6 °F 37.4 °F 37.0 °F 91% 30.10 in 7.0 mi East 3.5 mph - N/A   Overcast
5:15 AM 39.2 °F 35.9 °F 37.2 °F 93% 30.10 in 5.0 mi East 4.6 mph - N/A Rain Rain
5:35 AM 38.8 °F 36.5 °F 37.4 °F 95% 30.10 in 3.0 mi East 3.5 mph - N/A   Drizzle
5:55 AM 38.7 °F 36.3 °F 37.6 °F 96% 30.10 in 4.0 mi East 3.5 mph - N/A   Overcast
6:15 AM 38.7 °F 36.3 °F 37.6 °F 96% 30.10 in 4.0 mi East 3.5 mph - N/A Rain Rain
6:35 AM 38.7 °F 35.2 °F 37.6 °F 96% 30.09 in 4.0 mi East 4.6 mph - N/A   Overcast
6:55 AM 38.5 °F 36.1 °F 37.4 °F 96% 30.08 in 4.0 mi ENE 3.5 mph - N/A   Overcast
7:15 AM 38.3 °F 34.8 °F 37.4 °F 97% 30.08 in 3.0 mi East 4.6 mph - N/A   Overcast
7:35 AM 38.3 °F 34.8 °F 37.6 °F 97% 30.08 in 3.0 mi East 4.6 mph - N/A   Light Drizzle
7:55 AM 38.5 °F 34.1 °F 37.6 °F 97% 30.07 in 4.0 mi East 5.8 mph - N/A   Overcast
8:15 AM 38.7 °F 34.3 °F 37.6 °F 96% 30.07 in 4.0 mi East 5.8 mph - N/A   Overcast
8:35 AM 39.2 °F 34.2 °F 37.8 °F 95% 30.08 in 4.0 mi East 6.9 mph - N/A   Overcast
8:55 AM 39.4 °F 33.8 °F 38.3 °F 96% 30.05 in 4.0 mi East 8.1 mph - N/A   Overcast
9:15 AM 40.8 °F 36.2 °F 38.7 °F 92% 30.06 in 4.0 mi ESE 6.9 mph - N/A   Mostly Cloudy
9:35 AM 41.2 °F 37.3 °F 38.7 °F 91% 30.07 in 4.0 mi East 5.8 mph - N/A   Mostly Cloudy
9:55 AM 41.2 °F 36.0 °F 39.2 °F 93% 30.06 in 3.0 mi ESE 8.1 mph - N/A   Overcast
10:15 AM 41.7 °F 38.8 °F 39.6 °F 92% 30.07 in 3.0 mi ESE 4.6 mph - N/A   Overcast
10:35 AM 42.8 °F 40.1 °F 40.8 °F 93% 30.07 in 2.5 mi SE 4.6 mph - N/A   Overcast
10:55 AM 43.2 °F 39.7 °F 41.2 °F 93% 30.05 in 2.5 mi SE 5.8 mph - N/A   Overcast
11:15 AM 43.3 °F 40.7 °F 41.4 °F 93% 30.04 in 3.0 mi SE 4.6 mph - N/A   Overcast
11:35 AM 44.4 °F 40.5 °F 41.7 °F 90% 30.04 in 3.0 mi ESE 6.9 mph - N/A   Overcast
11:55 AM 44.6 °F 40.2 °F 41.9 °F 90% 30.02 in 3.0 mi East 8.1 mph - N/A   Overcast
12:15 PM 44.8 °F 43.3 °F 41.9 °F 90% 30.03 in 3.0 mi East 3.5 mph - N/A   Overcast
12:35 PM 45.0 °F 41.8 °F 42.8 °F 92% 30.02 in 2.5 mi ESE 5.8 mph - N/A   Overcast
12:55 PM 45.5 °F 41.8 °F 43.2 °F 92% 29.99 in 2.5 mi East 6.9 mph - N/A   Overcast
1:15 PM 45.9 °F 41.7 °F 43.7 °F 92% 29.98 in 2.5 mi East 8.1 mph - N/A   Overcast
1:35 PM 46.4 °F 42.9 °F 44.2 °F 92% 29.97 in 2.5 mi ESE 6.9 mph - N/A   Overcast
1:55 PM 46.2 °F 41.7 °F 44.2 °F 93% 29.96 in 2.5 mi East 9.2 mph - N/A   Overcast
2:15 PM 46.6 °F - 44.2 °F 92% 29.95 in 3.0 mi ESE 8.1 mph - N/A   Overcast
2:35 PM 46.8 °F - 45.0 °F 93% 29.95 in 2.5 mi ESE 6.9 mph - N/A   Overcast
2:55 PM 46.6 °F - 44.8 °F 93% 29.93 in 2.5 mi ESE 8.1 mph - N/A   Overcast
3:15 PM 46.4 °F 42.9 °F 45.3 °F 96% 29.92 in 1.5 mi ESE 6.9 mph - N/A   Overcast
3:35 PM 46.4 °F 42.9 °F 45.7 °F 97% 29.90 in 1.0 mi ESE 6.9 mph - N/A   Overcast
3:55 PM 46.6 °F - 46.0 °F 98% 29.90 in 1.0 mi East 4.6 mph - N/A   Overcast
4:15 PM 46.9 °F - 46.6 °F 99% 29.87 in 0.8 mi East 9.2 mph - N/A Rain Rain
4:35 PM 47.3 °F - 46.8 °F 98% 29.86 in 0.8 mi ESE 6.9 mph - N/A   Overcast
4:55 PM 47.3 °F - 46.9 °F 99% 29.86 in 1.0 mi East 6.9 mph - N/A   Drizzle
5:15 PM 47.7 °F - 47.3 °F 99% 29.85 in 1.5 mi ESE 9.2 mph - N/A   Light Drizzle
5:35 PM 47.8 °F - 47.3 °F 98% 29.86 in 2.0 mi SE 3.5 mph - N/A   Overcast
5:55 PM 48.2 °F - 47.5 °F 97% 29.87 in 2.0 mi SE 5.8 mph - N/A   Overcast
6:15 PM 48.2 °F - 47.7 °F 98% 29.86 in 1.5 mi SE 6.9 mph - N/A   Overcast
7:55 PM 49.1 °F - 49.1 °F 100% 29.83 in 0.8 mi SE 4.6 mph - N/A   Overcast
8:15 PM 49.6 °F - 49.5 °F 99% 29.82 in 1.2 mi SSE 5.8 mph - N/A   Overcast
8:35 PM 50.0 °F - 49.8 °F 99% 29.81 in 1.5 mi SSE 5.8 mph - N/A   Overcast
8:55 PM 50.0 °F - 50.0 °F 100% 29.80 in 1.2 mi SSE 8.1 mph - N/A   Overcast
9:15 PM 50.0 °F - 50.0 °F 100% 29.78 in 1.0 mi SSE 9.2 mph - N/A   Overcast
9:35 PM 50.0 °F - 49.8 °F 99% 29.76 in 0.8 mi SSE 10.4 mph - N/A   Overcast
9:55 PM 50.0 °F - 50.0 °F 100% 29.75 in 0.5 mi SSE 9.2 mph - N/A Fog Fog
10:15 PM 50.0 °F - 50.0 °F 100% 29.78 in 0.5 mi West 4.6 mph - N/A Fog Fog
10:35 PM 50.0 °F - 50.0 °F 100% 29.80 in 0.8 mi WSW 4.6 mph - N/A   Overcast
10:55 PM 50.0 °F - 49.8 °F 99% 29.79 in 0.5 mi WNW 3.5 mph - N/A Fog Fog
11:15 PM 49.6 °F - 49.6 °F 100% 29.78 in 0.2 mi Calm Calm - N/A Fog Fog
11:35 PM 49.6 °F - 49.6 °F 100% 29.76 in 0.2 mi Calm Calm - N/A Rain Rain
11:55 PM 49.5 °F - 49.5 °F 100% 29.75 in 0.2 mi Calm Calm - N/A   Drizzle